sensor_id;sensor_type;location;lat;lon;timestamp;P1;durP1;ratioP1;P2;durP2;ratioP2
13584;SDS011;6863;48.402;9.994;2023-02-13T00:00:45;52.97;;;31.50;;
13584;SDS011;6863;48.402;9.994;2023-02-13T00:03:12;50.47;;;29.70;;
13584;SDS011;6863;48.402;9.994;2023-02-13T00:05:38;49.97;;;28.70;;
13584;SDS011;6863;48.402;9.994;2023-02-13T00:08:03;53.43;;;28.50;;
13584;SDS011;6863;48.402;9.994;2023-02-13T00:10:29;47.97;;;27.43;;
13584;SDS011;6863;48.402;9.994;2023-02-13T00:12:54;51.33;;;28.17;;
13584;SDS011;6863;48.402;9.994;2023-02-13T00:15:20;52.00;;;27.87;;
13584;SDS011;6863;48.402;9.994;2023-02-13T00:17:46;51.60;;;28.53;;
13584;SDS011;6863;48.402;9.994;2023-02-13T00:20:11;50.17;;;28.40;;
13584;SDS011;6863;48.402;9.994;2023-02-13T00:22:37;50.80;;;28.03;;
13584;SDS011;6863;48.402;9.994;2023-02-13T00:25:04;47.33;;;26.63;;
13584;SDS011;6863;48.402;9.994;2023-02-13T00:27:31;47.70;;;27.60;;
13584;SDS011;6863;48.402;9.994;2023-02-13T00:29:56;44.70;;;27.93;;
13584;SDS011;6863;48.402;9.994;2023-02-13T00:32:22;41.87;;;25.97;;
13584;SDS011;6863;48.402;9.994;2023-02-13T00:34:47;52.70;;;29.20;;
13584;SDS011;6863;48.402;9.994;2023-02-13T00:37:13;47.73;;;26.70;;
13584;SDS011;6863;48.402;9.994;2023-02-13T00:39:38;51.60;;;27.80;;
13584;SDS011;6863;48.402;9.994;2023-02-13T00:42:04;49.37;;;27.97;;
13584;SDS011;6863;48.402;9.994;2023-02-13T00:44:30;47.80;;;28.63;;
13584;SDS011;6863;48.402;9.994;2023-02-13T00:46:55;49.07;;;26.77;;
13584;SDS011;6863;48.402;9.994;2023-02-13T00:49:21;46.20;;;27.43;;
13584;SDS011;6863;48.402;9.994;2023-02-13T00:51:47;43.87;;;24.93;;
13584;SDS011;6863;48.402;9.994;2023-02-13T00:54:12;43.33;;;25.57;;
13584;SDS011;6863;48.402;9.994;2023-02-13T00:56:38;46.90;;;28.03;;
13584;SDS011;6863;48.402;9.994;2023-02-13T00:59:04;42.73;;;26.47;;
13584;SDS011;6863;48.402;9.994;2023-02-13T01:01:29;48.37;;;27.63;;
13584;SDS011;6863;48.402;9.994;2023-02-13T01:03:55;45.70;;;26.90;;
13584;SDS011;6863;48.402;9.994;2023-02-13T01:06:20;51.90;;;29.27;;
13584;SDS011;6863;48.402;9.994;2023-02-13T01:08:46;49.23;;;26.43;;
13584;SDS011;6863;48.402;9.994;2023-02-13T01:11:11;44.20;;;25.43;;
13584;SDS011;6863;48.402;9.994;2023-02-13T01:13:37;48.50;;;25.43;;
13584;SDS011;6863;48.402;9.994;2023-02-13T01:16:03;47.93;;;27.43;;
13584;SDS011;6863;48.402;9.994;2023-02-13T01:18:28;48.93;;;25.20;;
13584;SDS011;6863;48.402;9.994;2023-02-13T01:21:01;45.03;;;24.87;;
13584;SDS011;6863;48.402;9.994;2023-02-13T01:23:32;47.57;;;25.30;;
13584;SDS011;6863;48.402;9.994;2023-02-13T01:25:59;46.50;;;24.40;;
13584;SDS011;6863;48.402;9.994;2023-02-13T01:28:24;47.33;;;24.77;;
13584;SDS011;6863;48.402;9.994;2023-02-13T01:30:54;56.33;;;25.67;;
13584;SDS011;6863;48.402;9.994;2023-02-13T01:33:21;39.70;;;25.00;;
13584;SDS011;6863;48.402;9.994;2023-02-13T01:35:48;56.17;;;26.43;;
13584;SDS011;6863;48.402;9.994;2023-02-13T01:38:14;50.93;;;26.57;;
13584;SDS011;6863;48.402;9.994;2023-02-13T01:40:46;43.53;;;24.93;;
13584;SDS011;6863;48.402;9.994;2023-02-13T01:43:13;55.47;;;25.20;;
13584;SDS011;6863;48.402;9.994;2023-02-13T01:45:39;47.10;;;24.53;;
13584;SDS011;6863;48.402;9.994;2023-02-13T01:48:14;39.40;;;24.03;;
13584;SDS011;6863;48.402;9.994;2023-02-13T01:50:44;49.50;;;24.20;;
13584;SDS011;6863;48.402;9.994;2023-02-13T01:53:17;46.17;;;25.57;;
13584;SDS011;6863;48.402;9.994;2023-02-13T01:56:00;43.07;;;22.70;;
13584;SDS011;6863;48.402;9.994;2023-02-13T01:58:31;66.23;;;26.00;;
13584;SDS011;6863;48.402;9.994;2023-02-13T02:00:59;44.10;;;23.37;;
13584;SDS011;6863;48.402;9.994;2023-02-13T02:03:30;45.43;;;25.63;;
13584;SDS011;6863;48.402;9.994;2023-02-13T02:06:25;54.10;;;25.00;;
13584;SDS011;6863;48.402;9.994;2023-02-13T02:08:54;43.97;;;24.00;;
13584;SDS011;6863;48.402;9.994;2023-02-13T02:14:08;52.30;;;23.87;;
13584;SDS011;6863;48.402;9.994;2023-02-13T02:16:34;55.77;;;26.63;;
13584;SDS011;6863;48.402;9.994;2023-02-13T02:19:01;40.97;;;23.43;;
13584;SDS011;6863;48.402;9.994;2023-02-13T02:24:25;56.30;;;25.97;;
13584;SDS011;6863;48.402;9.994;2023-02-13T02:27:04;47.90;;;24.80;;
13584;SDS011;6863;48.402;9.994;2023-02-13T02:40:36;37.83;;;22.20;;
13584;SDS011;6863;48.402;9.994;2023-02-13T02:43:11;43.90;;;21.47;;
13584;SDS011;6863;48.402;9.994;2023-02-13T02:45:39;63.33;;;24.90;;
13584;SDS011;6863;48.402;9.994;2023-02-13T02:51:11;42.90;;;23.33;;
13584;SDS011;6863;48.402;9.994;2023-02-13T02:56:57;34.30;;;20.13;;
13584;SDS011;6863;48.402;9.994;2023-02-13T02:59:27;40.17;;;21.00;;
13584;SDS011;6863;48.402;9.994;2023-02-13T03:02:13;39.27;;;22.10;;
13584;SDS011;6863;48.402;9.994;2023-02-13T03:04:59;48.60;;;24.50;;
13584;SDS011;6863;48.402;9.994;2023-02-13T03:07:44;36.80;;;22.93;;
13584;SDS011;6863;48.402;9.994;2023-02-13T03:10:12;55.47;;;24.33;;
13584;SDS011;6863;48.402;9.994;2023-02-13T03:13:11;41.47;;;22.73;;
13584;SDS011;6863;48.402;9.994;2023-02-13T03:15:49;47.20;;;23.77;;
13584;SDS011;6863;48.402;9.994;2023-02-13T03:18:36;58.10;;;24.27;;
13584;SDS011;6863;48.402;9.994;2023-02-13T03:21:27;45.20;;;23.67;;
13584;SDS011;6863;48.402;9.994;2023-02-13T03:27:26;31.67;;;19.30;;
13584;SDS011;6863;48.402;9.994;2023-02-13T03:35:46;25.67;;;17.17;;
13584;SDS011;6863;48.402;9.994;2023-02-13T03:38:41;30.17;;;18.33;;
13584;SDS011;6863;48.402;9.994;2023-02-13T03:41:40;26.73;;;15.67;;
13584;SDS011;6863;48.402;9.994;2023-02-13T03:44:29;37.73;;;20.73;;
13584;SDS011;6863;48.402;9.994;2023-02-13T03:47:08;59.83;;;26.27;;
13584;SDS011;6863;48.402;9.994;2023-02-13T03:49:39;41.33;;;24.33;;
13584;SDS011;6863;48.402;9.994;2023-02-13T03:52:32;42.67;;;24.10;;
13584;SDS011;6863;48.402;9.994;2023-02-13T03:55:26;47.67;;;26.57;;
13584;SDS011;6863;48.402;9.994;2023-02-13T03:58:12;47.87;;;27.23;;
13584;SDS011;6863;48.402;9.994;2023-02-13T04:01:01;40.77;;;24.03;;
13584;SDS011;6863;48.402;9.994;2023-02-13T04:03:31;42.67;;;24.23;;
13584;SDS011;6863;48.402;9.994;2023-02-13T04:06:08;35.83;;;20.90;;
13584;SDS011;6863;48.402;9.994;2023-02-13T04:08:40;34.00;;;19.03;;
13584;SDS011;6863;48.402;9.994;2023-02-13T04:13:44;40.83;;;23.23;;
13584;SDS011;6863;48.402;9.994;2023-02-13T04:16:26;46.13;;;26.87;;
13584;SDS011;6863;48.402;9.994;2023-02-13T04:18:57;44.80;;;24.60;;
13584;SDS011;6863;48.402;9.994;2023-02-13T04:21:24;41.40;;;25.70;;
13584;SDS011;6863;48.402;9.994;2023-02-13T04:23:50;37.20;;;21.77;;
13584;SDS011;6863;48.402;9.994;2023-02-13T04:26:16;36.63;;;19.63;;
13584;SDS011;6863;48.402;9.994;2023-02-13T04:28:44;32.87;;;18.90;;
13584;SDS011;6863;48.402;9.994;2023-02-13T04:31:10;31.30;;;19.80;;
13584;SDS011;6863;48.402;9.994;2023-02-13T04:33:36;32.57;;;19.87;;
13584;SDS011;6863;48.402;9.994;2023-02-13T04:36:01;35.47;;;22.63;;
13584;SDS011;6863;48.402;9.994;2023-02-13T04:38:27;37.67;;;22.10;;
13584;SDS011;6863;48.402;9.994;2023-02-13T04:40:53;39.80;;;22.13;;
13584;SDS011;6863;48.402;9.994;2023-02-13T04:43:18;42.10;;;24.53;;
13584;SDS011;6863;48.402;9.994;2023-02-13T04:45:47;35.27;;;20.63;;
13584;SDS011;6863;48.402;9.994;2023-02-13T04:48:13;39.40;;;22.97;;
13584;SDS011;6863;48.402;9.994;2023-02-13T04:50:39;26.60;;;17.40;;
13584;SDS011;6863;48.402;9.994;2023-02-13T04:53:04;31.33;;;18.07;;
13584;SDS011;6863;48.402;9.994;2023-02-13T04:55:30;31.17;;;16.90;;
13584;SDS011;6863;48.402;9.994;2023-02-13T04:57:55;31.70;;;18.43;;
13584;SDS011;6863;48.402;9.994;2023-02-13T05:00:22;36.33;;;19.50;;
13584;SDS011;6863;48.402;9.994;2023-02-13T05:02:49;38.23;;;22.37;;
13584;SDS011;6863;48.402;9.994;2023-02-13T05:05:15;45.27;;;24.87;;
13584;SDS011;6863;48.402;9.994;2023-02-13T05:07:41;40.33;;;22.77;;
13584;SDS011;6863;48.402;9.994;2023-02-13T05:10:10;40.50;;;21.80;;
13584;SDS011;6863;48.402;9.994;2023-02-13T05:12:36;36.87;;;23.07;;
13584;SDS011;6863;48.402;9.994;2023-02-13T05:15:02;42.83;;;22.43;;
13584;SDS011;6863;48.402;9.994;2023-02-13T05:17:29;37.83;;;22.60;;
13584;SDS011;6863;48.402;9.994;2023-02-13T05:19:55;40.70;;;22.23;;
13584;SDS011;6863;48.402;9.994;2023-02-13T05:22:20;38.77;;;23.23;;
13584;SDS011;6863;48.402;9.994;2023-02-13T05:25:05;39.40;;;23.17;;
13584;SDS011;6863;48.402;9.994;2023-02-13T05:27:30;38.70;;;20.57;;
13584;SDS011;6863;48.402;9.994;2023-02-13T05:29:56;39.97;;;19.90;;
13584;SDS011;6863;48.402;9.994;2023-02-13T05:32:22;36.27;;;19.77;;
13584;SDS011;6863;48.402;9.994;2023-02-13T05:34:47;37.17;;;20.10;;
13584;SDS011;6863;48.402;9.994;2023-02-13T05:37:13;37.30;;;19.73;;
13584;SDS011;6863;48.402;9.994;2023-02-13T05:39:38;38.50;;;20.03;;
13584;SDS011;6863;48.402;9.994;2023-02-13T05:42:04;38.73;;;19.60;;
13584;SDS011;6863;48.402;9.994;2023-02-13T05:44:30;34.03;;;17.93;;
13584;SDS011;6863;48.402;9.994;2023-02-13T05:46:56;38.53;;;18.90;;
13584;SDS011;6863;48.402;9.994;2023-02-13T05:49:22;30.47;;;18.73;;
13584;SDS011;6863;48.402;9.994;2023-02-13T05:51:48;34.63;;;19.03;;
13584;SDS011;6863;48.402;9.994;2023-02-13T05:54:16;37.50;;;18.33;;
13584;SDS011;6863;48.402;9.994;2023-02-13T05:56:42;31.93;;;16.90;;
13584;SDS011;6863;48.402;9.994;2023-02-13T05:59:08;28.57;;;15.37;;
13584;SDS011;6863;48.402;9.994;2023-02-13T06:01:34;30.47;;;17.40;;
13584;SDS011;6863;48.402;9.994;2023-02-13T06:04:00;25.83;;;14.83;;
13584;SDS011;6863;48.402;9.994;2023-02-13T06:06:26;29.00;;;16.10;;
13584;SDS011;6863;48.402;9.994;2023-02-13T06:08:51;29.63;;;16.43;;
13584;SDS011;6863;48.402;9.994;2023-02-13T06:11:17;31.43;;;16.57;;
13584;SDS011;6863;48.402;9.994;2023-02-13T06:13:43;28.23;;;16.13;;
13584;SDS011;6863;48.402;9.994;2023-02-13T06:16:09;25.53;;;16.27;;
13584;SDS011;6863;48.402;9.994;2023-02-13T06:18:36;27.83;;;15.60;;
13584;SDS011;6863;48.402;9.994;2023-02-13T06:21:02;25.57;;;15.77;;
13584;SDS011;6863;48.402;9.994;2023-02-13T06:23:29;29.87;;;17.50;;
13584;SDS011;6863;48.402;9.994;2023-02-13T06:25:55;32.60;;;19.37;;
13584;SDS011;6863;48.402;9.994;2023-02-13T06:28:20;42.20;;;21.23;;
13584;SDS011;6863;48.402;9.994;2023-02-13T06:30:46;42.17;;;22.87;;
13584;SDS011;6863;48.402;9.994;2023-02-13T06:33:13;49.33;;;22.40;;
13584;SDS011;6863;48.402;9.994;2023-02-13T06:35:39;34.30;;;21.10;;
13584;SDS011;6863;48.402;9.994;2023-02-13T06:38:04;45.10;;;24.33;;
13584;SDS011;6863;48.402;9.994;2023-02-13T06:40:30;34.07;;;19.27;;
13584;SDS011;6863;48.402;9.994;2023-02-13T06:42:55;34.07;;;18.17;;
13584;SDS011;6863;48.402;9.994;2023-02-13T06:45:21;33.77;;;18.93;;
13584;SDS011;6863;48.402;9.994;2023-02-13T06:47:47;40.80;;;20.27;;
13584;SDS011;6863;48.402;9.994;2023-02-13T06:50:15;33.47;;;19.63;;
13584;SDS011;6863;48.402;9.994;2023-02-13T06:52:45;32.47;;;17.87;;
13584;SDS011;6863;48.402;9.994;2023-02-13T06:55:12;30.20;;;16.40;;
13584;SDS011;6863;48.402;9.994;2023-02-13T06:57:38;28.03;;;17.80;;
13584;SDS011;6863;48.402;9.994;2023-02-13T07:00:04;36.40;;;18.50;;
13584;SDS011;6863;48.402;9.994;2023-02-13T07:02:33;35.53;;;18.73;;
13584;SDS011;6863;48.402;9.994;2023-02-13T07:04:58;30.77;;;17.77;;
13584;SDS011;6863;48.402;9.994;2023-02-13T07:07:24;31.67;;;17.40;;
13584;SDS011;6863;48.402;9.994;2023-02-13T07:09:49;31.23;;;18.73;;
13584;SDS011;6863;48.402;9.994;2023-02-13T07:12:15;41.30;;;21.73;;
13584;SDS011;6863;48.402;9.994;2023-02-13T07:14:41;44.20;;;23.03;;
13584;SDS011;6863;48.402;9.994;2023-02-13T07:17:06;39.73;;;19.30;;
13584;SDS011;6863;48.402;9.994;2023-02-13T07:19:32;34.03;;;18.23;;
13584;SDS011;6863;48.402;9.994;2023-02-13T07:21:57;31.70;;;16.87;;
13584;SDS011;6863;48.402;9.994;2023-02-13T07:24:23;29.97;;;16.07;;
13584;SDS011;6863;48.402;9.994;2023-02-13T07:26:49;31.40;;;18.10;;
13584;SDS011;6863;48.402;9.994;2023-02-13T07:29:14;31.83;;;18.73;;
13584;SDS011;6863;48.402;9.994;2023-02-13T07:31:40;35.07;;;20.30;;
13584;SDS011;6863;48.402;9.994;2023-02-13T07:34:06;31.63;;;20.40;;
13584;SDS011;6863;48.402;9.994;2023-02-13T07:36:32;41.90;;;22.80;;
13584;SDS011;6863;48.402;9.994;2023-02-13T07:38:59;41.70;;;24.10;;
13584;SDS011;6863;48.402;9.994;2023-02-13T07:41:24;43.93;;;24.43;;
13584;SDS011;6863;48.402;9.994;2023-02-13T07:43:51;41.10;;;24.83;;
13584;SDS011;6863;48.402;9.994;2023-02-13T07:46:17;56.33;;;28.93;;
13584;SDS011;6863;48.402;9.994;2023-02-13T07:48:42;54.40;;;31.73;;
13584;SDS011;6863;48.402;9.994;2023-02-13T07:51:08;54.77;;;28.73;;
13584;SDS011;6863;48.402;9.994;2023-02-13T07:53:34;47.90;;;26.03;;
13584;SDS011;6863;48.402;9.994;2023-02-13T07:56:03;39.93;;;22.30;;
13584;SDS011;6863;48.402;9.994;2023-02-13T07:58:33;31.07;;;18.60;;
13584;SDS011;6863;48.402;9.994;2023-02-13T08:01:04;34.80;;;21.90;;
13584;SDS011;6863;48.402;9.994;2023-02-13T08:03:32;39.97;;;22.43;;
13584;SDS011;6863;48.402;9.994;2023-02-13T08:05:58;38.40;;;21.30;;
13584;SDS011;6863;48.402;9.994;2023-02-13T08:08:24;36.00;;;21.63;;
13584;SDS011;6863;48.402;9.994;2023-02-13T08:10:49;40.97;;;23.93;;
13584;SDS011;6863;48.402;9.994;2023-02-13T08:13:33;37.30;;;23.03;;
13584;SDS011;6863;48.402;9.994;2023-02-13T08:16:01;35.40;;;21.23;;
13584;SDS011;6863;48.402;9.994;2023-02-13T08:18:27;37.93;;;22.80;;
13584;SDS011;6863;48.402;9.994;2023-02-13T08:20:52;39.87;;;24.80;;
13584;SDS011;6863;48.402;9.994;2023-02-13T08:23:18;39.87;;;23.90;;
13584;SDS011;6863;48.402;9.994;2023-02-13T08:25:44;36.60;;;21.47;;
13584;SDS011;6863;48.402;9.994;2023-02-13T08:28:11;43.17;;;25.63;;
13584;SDS011;6863;48.402;9.994;2023-02-13T08:30:37;42.20;;;26.07;;
13584;SDS011;6863;48.402;9.994;2023-02-13T08:33:03;44.93;;;26.67;;
13584;SDS011;6863;48.402;9.994;2023-02-13T08:35:28;32.60;;;18.50;;
13584;SDS011;6863;48.402;9.994;2023-02-13T08:40:26;31.83;;;18.73;;
13584;SDS011;6863;48.402;9.994;2023-02-13T08:42:52;28.57;;;17.93;;
13584;SDS011;6863;48.402;9.994;2023-02-13T08:45:24;28.43;;;16.43;;
13584;SDS011;6863;48.402;9.994;2023-02-13T08:47:49;29.00;;;16.00;;
13584;SDS011;6863;48.402;9.994;2023-02-13T08:50:15;31.77;;;16.53;;
13584;SDS011;6863;48.402;9.994;2023-02-13T08:52:41;24.87;;;15.80;;
13584;SDS011;6863;48.402;9.994;2023-02-13T08:55:06;23.73;;;14.33;;
13584;SDS011;6863;48.402;9.994;2023-02-13T08:57:32;25.60;;;15.47;;
13584;SDS011;6863;48.402;9.994;2023-02-13T08:59:58;25.20;;;16.07;;
13584;SDS011;6863;48.402;9.994;2023-02-13T09:02:23;26.33;;;15.53;;
13584;SDS011;6863;48.402;9.994;2023-02-13T09:04:49;27.87;;;17.53;;
13584;SDS011;6863;48.402;9.994;2023-02-13T09:07:15;21.40;;;14.13;;
13584;SDS011;6863;48.402;9.994;2023-02-13T09:09:40;26.30;;;14.73;;
13584;SDS011;6863;48.402;9.994;2023-02-13T09:12:06;22.73;;;13.87;;
13584;SDS011;6863;48.402;9.994;2023-02-13T09:14:32;19.83;;;13.67;;
13584;SDS011;6863;48.402;9.994;2023-02-13T09:16:59;22.83;;;13.43;;
13584;SDS011;6863;48.402;9.994;2023-02-13T09:19:25;20.60;;;13.33;;
13584;SDS011;6863;48.402;9.994;2023-02-13T09:21:50;24.33;;;15.10;;
13584;SDS011;6863;48.402;9.994;2023-02-13T09:24:16;23.40;;;14.10;;
13584;SDS011;6863;48.402;9.994;2023-02-13T09:26:41;26.43;;;14.83;;
13584;SDS011;6863;48.402;9.994;2023-02-13T09:29:07;27.83;;;16.40;;
13584;SDS011;6863;48.402;9.994;2023-02-13T09:31:32;24.77;;;15.73;;
13584;SDS011;6863;48.402;9.994;2023-02-13T09:33:58;23.97;;;15.47;;
13584;SDS011;6863;48.402;9.994;2023-02-13T09:36:23;23.80;;;15.73;;
13584;SDS011;6863;48.402;9.994;2023-02-13T09:38:53;20.33;;;13.23;;
13584;SDS011;6863;48.402;9.994;2023-02-13T09:41:24;21.73;;;13.87;;
13584;SDS011;6863;48.402;9.994;2023-02-13T09:43:56;19.53;;;13.83;;
13584;SDS011;6863;48.402;9.994;2023-02-13T09:46:42;20.67;;;13.27;;
13584;SDS011;6863;48.402;9.994;2023-02-13T09:49:13;18.67;;;11.83;;
13584;SDS011;6863;48.402;9.994;2023-02-13T09:51:43;17.57;;;12.27;;
13584;SDS011;6863;48.402;9.994;2023-02-13T09:54:14;24.00;;;13.87;;
13584;SDS011;6863;48.402;9.994;2023-02-13T09:57:07;19.80;;;12.27;;
13584;SDS011;6863;48.402;9.994;2023-02-13T09:59:59;19.50;;;13.33;;
13584;SDS011;6863;48.402;9.994;2023-02-13T10:10:51;18.93;;;12.67;;
13584;SDS011;6863;48.402;9.994;2023-02-13T10:21:59;34.93;;;21.10;;
13584;SDS011;6863;48.402;9.994;2023-02-13T10:24:50;31.10;;;19.07;;
13584;SDS011;6863;48.402;9.994;2023-02-13T10:27:22;38.60;;;22.63;;
13584;SDS011;6863;48.402;9.994;2023-02-13T10:29:51;43.37;;;24.43;;
13584;SDS011;6863;48.402;9.994;2023-02-13T10:35:39;39.10;;;22.83;;
13584;SDS011;6863;48.402;9.994;2023-02-13T10:38:17;33.27;;;21.53;;
13584;SDS011;6863;48.402;9.994;2023-02-13T10:41:13;38.90;;;24.17;;
13584;SDS011;6863;48.402;9.994;2023-02-13T10:46:50;24.90;;;18.20;;
13584;SDS011;6863;48.402;9.994;2023-02-13T11:03:12;23.53;;;14.67;;
13584;SDS011;6863;48.402;9.994;2023-02-13T11:05:41;31.33;;;19.40;;
13584;SDS011;6863;48.402;9.994;2023-02-13T11:08:41;40.87;;;24.80;;
13584;SDS011;6863;48.402;9.994;2023-02-13T11:11:02;22.33;;;14.77;;
13584;SDS011;6863;48.402;9.994;2023-02-13T11:13:28;22.10;;;15.03;;
13584;SDS011;6863;48.402;9.994;2023-02-13T11:15:55;22.57;;;15.57;;
13584;SDS011;6863;48.402;9.994;2023-02-13T11:18:38;24.17;;;16.27;;
13584;SDS011;6863;48.402;9.994;2023-02-13T11:21:13;25.60;;;16.93;;
13584;SDS011;6863;48.402;9.994;2023-02-13T11:23:48;26.17;;;16.77;;
13584;SDS011;6863;48.402;9.994;2023-02-13T11:28:48;20.57;;;14.37;;
13584;SDS011;6863;48.402;9.994;2023-02-13T11:31:28;24.53;;;14.83;;
13584;SDS011;6863;48.402;9.994;2023-02-13T11:33:56;22.43;;;15.80;;
13584;SDS011;6863;48.402;9.994;2023-02-13T11:36:30;27.20;;;16.07;;
13584;SDS011;6863;48.402;9.994;2023-02-13T11:38:58;22.83;;;15.77;;
13584;SDS011;6863;48.402;9.994;2023-02-13T11:41:41;20.73;;;15.83;;
13584;SDS011;6863;48.402;9.994;2023-02-13T11:44:19;21.53;;;14.97;;
13584;SDS011;6863;48.402;9.994;2023-02-13T11:46:51;27.77;;;17.63;;
13584;SDS011;6863;48.402;9.994;2023-02-13T11:49:20;20.27;;;15.20;;
13584;SDS011;6863;48.402;9.994;2023-02-13T11:51:49;22.13;;;14.93;;
13584;SDS011;6863;48.402;9.994;2023-02-13T11:54:29;21.80;;;15.03;;
13584;SDS011;6863;48.402;9.994;2023-02-13T11:59:44;38.17;;;24.20;;
13584;SDS011;6863;48.402;9.994;2023-02-13T12:02:24;33.10;;;21.50;;
13584;SDS011;6863;48.402;9.994;2023-02-13T12:04:51;27.93;;;16.90;;
13584;SDS011;6863;48.402;9.994;2023-02-13T12:07:23;25.17;;;15.67;;
13584;SDS011;6863;48.402;9.994;2023-02-13T12:12:34;22.47;;;15.83;;
13584;SDS011;6863;48.402;9.994;2023-02-13T12:15:15;28.60;;;18.90;;
13584;SDS011;6863;48.402;9.994;2023-02-13T12:17:43;32.07;;;20.40;;
13584;SDS011;6863;48.402;9.994;2023-02-13T12:20:12;33.53;;;20.20;;
13584;SDS011;6863;48.402;9.994;2023-02-13T12:25:38;42.57;;;26.67;;
13584;SDS011;6863;48.402;9.994;2023-02-13T12:28:44;42.50;;;28.57;;
13584;SDS011;6863;48.402;9.994;2023-02-13T12:37:18;46.27;;;29.70;;
13584;SDS011;6863;48.402;9.994;2023-02-13T12:45:50;33.63;;;21.73;;
13584;SDS011;6863;48.402;9.994;2023-02-13T12:48:51;34.80;;;22.60;;
13584;SDS011;6863;48.402;9.994;2023-02-13T12:54:20;32.57;;;22.57;;
13584;SDS011;6863;48.402;9.994;2023-02-13T13:05:59;36.80;;;25.00;;
13584;SDS011;6863;48.402;9.994;2023-02-13T13:17:19;26.97;;;17.73;;
13584;SDS011;6863;48.402;9.994;2023-02-13T13:22:52;35.80;;;21.67;;
13584;SDS011;6863;48.402;9.994;2023-02-13T13:25:26;38.23;;;24.93;;
13584;SDS011;6863;48.402;9.994;2023-02-13T13:28:01;36.50;;;23.97;;
13584;SDS011;6863;48.402;9.994;2023-02-13T13:30:36;37.23;;;24.03;;
13584;SDS011;6863;48.402;9.994;2023-02-13T13:35:32;33.53;;;20.57;;
13584;SDS011;6863;48.402;9.994;2023-02-13T13:40:51;25.97;;;16.77;;
13584;SDS011;6863;48.402;9.994;2023-02-13T13:48:39;27.27;;;19.63;;
13584;SDS011;6863;48.402;9.994;2023-02-13T13:51:27;26.33;;;17.73;;
13584;SDS011;6863;48.402;9.994;2023-02-13T13:54:16;21.83;;;16.60;;
13584;SDS011;6863;48.402;9.994;2023-02-13T13:59:18;26.67;;;17.63;;
13584;SDS011;6863;48.402;9.994;2023-02-13T14:07:43;19.97;;;13.40;;
13584;SDS011;6863;48.402;9.994;2023-02-13T14:12:59;18.47;;;12.97;;
13584;SDS011;6863;48.402;9.994;2023-02-13T14:18:06;20.03;;;13.67;;
13584;SDS011;6863;48.402;9.994;2023-02-13T14:25:44;20.10;;;13.43;;
13584;SDS011;6863;48.402;9.994;2023-02-13T14:28:18;24.37;;;15.43;;
13584;SDS011;6863;48.402;9.994;2023-02-13T14:30:47;24.13;;;15.53;;
13584;SDS011;6863;48.402;9.994;2023-02-13T14:33:25;28.40;;;17.50;;
13584;SDS011;6863;48.402;9.994;2023-02-13T14:35:58;23.00;;;16.17;;
13584;SDS011;6863;48.402;9.994;2023-02-13T14:38:30;24.63;;;16.50;;
13584;SDS011;6863;48.402;9.994;2023-02-13T14:40:55;25.60;;;16.93;;
13584;SDS011;6863;48.402;9.994;2023-02-13T14:43:32;22.70;;;16.13;;
13584;SDS011;6863;48.402;9.994;2023-02-13T14:48:34;23.17;;;15.33;;
13584;SDS011;6863;48.402;9.994;2023-02-13T14:51:04;21.37;;;15.50;;
13584;SDS011;6863;48.402;9.994;2023-02-13T14:53:31;20.37;;;14.63;;
13584;SDS011;6863;48.402;9.994;2023-02-13T14:56:13;23.40;;;15.40;;
13584;SDS011;6863;48.402;9.994;2023-02-13T14:58:50;21.83;;;15.83;;
13584;SDS011;6863;48.402;9.994;2023-02-13T15:01:42;21.60;;;14.73;;
13584;SDS011;6863;48.402;9.994;2023-02-13T15:04:14;24.10;;;15.60;;
13584;SDS011;6863;48.402;9.994;2023-02-13T15:06:46;24.47;;;15.33;;
13584;SDS011;6863;48.402;9.994;2023-02-13T15:09:35;22.63;;;15.13;;
13584;SDS011;6863;48.402;9.994;2023-02-13T15:12:03;24.73;;;15.07;;
13584;SDS011;6863;48.402;9.994;2023-02-13T15:14:47;32.93;;;18.20;;
13584;SDS011;6863;48.402;9.994;2023-02-13T15:17:14;27.30;;;16.80;;
13584;SDS011;6863;48.402;9.994;2023-02-13T15:19:48;27.83;;;17.93;;
13584;SDS011;6863;48.402;9.994;2023-02-13T15:22:32;28.23;;;18.83;;
13584;SDS011;6863;48.402;9.994;2023-02-13T15:25:00;28.00;;;18.13;;
13584;SDS011;6863;48.402;9.994;2023-02-13T15:27:28;31.17;;;18.37;;
13584;SDS011;6863;48.402;9.994;2023-02-13T15:29:57;31.63;;;19.80;;
13584;SDS011;6863;48.402;9.994;2023-02-13T15:32:41;36.63;;;22.77;;
13584;SDS011;6863;48.402;9.994;2023-02-13T15:35:20;41.07;;;25.00;;
13584;SDS011;6863;48.402;9.994;2023-02-13T15:40:21;34.40;;;18.83;;
13584;SDS011;6863;48.402;9.994;2023-02-13T15:42:47;34.60;;;20.50;;
13584;SDS011;6863;48.402;9.994;2023-02-13T15:45:14;36.63;;;21.90;;
13584;SDS011;6863;48.402;9.994;2023-02-13T15:47:42;25.90;;;16.60;;
13584;SDS011;6863;48.402;9.994;2023-02-13T15:50:16;27.43;;;16.73;;
13584;SDS011;6863;48.402;9.994;2023-02-13T15:52:48;26.83;;;16.30;;
13584;SDS011;6863;48.402;9.994;2023-02-13T15:55:23;26.57;;;16.30;;
13584;SDS011;6863;48.402;9.994;2023-02-13T15:57:51;26.50;;;16.00;;
13584;SDS011;6863;48.402;9.994;2023-02-13T16:00:22;29.93;;;18.03;;
13584;SDS011;6863;48.402;9.994;2023-02-13T16:02:50;36.60;;;22.57;;
13584;SDS011;6863;48.402;9.994;2023-02-13T16:05:18;60.37;;;32.83;;
13584;SDS011;6863;48.402;9.994;2023-02-13T16:07:45;55.10;;;29.87;;
13584;SDS011;6863;48.402;9.994;2023-02-13T16:10:17;33.53;;;20.03;;
13584;SDS011;6863;48.402;9.994;2023-02-13T16:12:48;32.10;;;19.53;;
13584;SDS011;6863;48.402;9.994;2023-02-13T16:15:14;41.47;;;22.33;;
13584;SDS011;6863;48.402;9.994;2023-02-13T16:17:43;56.80;;;31.40;;
13584;SDS011;6863;48.402;9.994;2023-02-13T16:22:37;42.20;;;22.67;;
13584;SDS011;6863;48.402;9.994;2023-02-13T16:27:35;49.20;;;25.60;;
13584;SDS011;6863;48.402;9.994;2023-02-13T16:30:03;62.77;;;29.37;;
13584;SDS011;6863;48.402;9.994;2023-02-13T16:32:32;54.53;;;28.27;;
13584;SDS011;6863;48.402;9.994;2023-02-13T16:40:31;56.67;;;28.63;;
13584;SDS011;6863;48.402;9.994;2023-02-13T16:46:47;39.77;;;22.90;;
13584;SDS011;6863;48.402;9.994;2023-02-13T16:53:59;44.17;;;22.43;;
13584;SDS011;6863;48.402;9.994;2023-02-13T16:56:35;36.43;;;20.93;;
13584;SDS011;6863;48.402;9.994;2023-02-13T17:04:45;43.87;;;23.53;;
13584;SDS011;6863;48.402;9.994;2023-02-13T17:07:14;33.73;;;20.43;;
13584;SDS011;6863;48.402;9.994;2023-02-13T17:09:50;38.80;;;20.53;;
13584;SDS011;6863;48.402;9.994;2023-02-13T17:12:17;33.33;;;19.87;;
13584;SDS011;6863;48.402;9.994;2023-02-13T17:14:43;39.77;;;24.10;;
13584;SDS011;6863;48.402;9.994;2023-02-13T17:17:13;59.70;;;29.73;;
13584;SDS011;6863;48.402;9.994;2023-02-13T17:19:41;65.80;;;35.03;;
13584;SDS011;6863;48.402;9.994;2023-02-13T17:22:07;67.33;;;34.43;;
13584;SDS011;6863;48.402;9.994;2023-02-13T17:24:43;54.67;;;28.50;;
13584;SDS011;6863;48.402;9.994;2023-02-13T17:27:09;53.67;;;30.33;;
13584;SDS011;6863;48.402;9.994;2023-02-13T17:29:35;45.50;;;27.13;;
13584;SDS011;6863;48.402;9.994;2023-02-13T17:32:01;47.83;;;26.37;;
13584;SDS011;6863;48.402;9.994;2023-02-13T17:34:26;45.90;;;24.73;;
13584;SDS011;6863;48.402;9.994;2023-02-13T17:36:52;40.20;;;23.03;;
13584;SDS011;6863;48.402;9.994;2023-02-13T17:39:18;41.27;;;23.17;;
13584;SDS011;6863;48.402;9.994;2023-02-13T17:41:43;51.23;;;27.40;;
13584;SDS011;6863;48.402;9.994;2023-02-13T17:44:12;47.93;;;27.77;;
13584;SDS011;6863;48.402;9.994;2023-02-13T17:46:38;48.17;;;24.97;;
13584;SDS011;6863;48.402;9.994;2023-02-13T17:49:04;37.63;;;21.80;;
13584;SDS011;6863;48.402;9.994;2023-02-13T17:51:30;38.87;;;23.77;;